Time;durP1;ratioP1;P1;durP2;ratioP2;P2;SDS_P1;SDS_P2;PMS_P1;PMS_P2;Temp;Humidity;BMP_temperature;BMP_pressure;BME280_temperature;BME280_humidity;BME280_pressure;Samples;Min_cycle;Max_cycle;Signal;HPM_P1;HPM_P2
2021/04/28 00:00:35;;;;;;;4.87;4.00;;;9.10;57.70;;;;;;4991184;28;20235;-79
2021/04/28 00:03:06;;;;;;;4.57;4.10;;;9.10;57.90;;;;;;4990301;28;20184;-80
2021/04/28 00:05:32;;;;;;;5.10;4.33;;;9.00;57.90;;;;;;4990691;28;20431;-80
2021/04/28 00:07:58;;;;;;;4.73;4.17;;;9.00;58.00;;;;;;4990695;28;20492;-79
2021/04/28 00:10:28;;;;;;;8.53;4.13;;;9.00;57.90;;;;;;4991697;28;20415;-80
2021/04/28 00:12:54;;;;;;;5.20;4.17;;;9.00;58.20;;;;;;4990802;28;20187;-79
2021/04/28 00:15:24;;;;;;;8.53;4.37;;;9.00;58.10;;;;;;4989624;28;20443;-80
2021/04/28 00:17:51;;;;;;;5.00;4.50;;;9.00;58.00;;;;;;4990946;28;20458;-79
2021/04/28 00:20:16;;;;;;;9.57;4.13;;;9.00;58.30;;;;;;4991198;28;20519;-79
2021/04/28 00:22:43;;;;;;;7.50;4.30;;;8.90;58.30;;;;;;4990865;28;20510;-80
2021/04/28 00:25:12;;;;;;;5.23;4.83;;;9.00;58.60;;;;;;4989668;28;20185;-79
2021/04/28 00:27:38;;;;;;;4.50;4.10;;;9.00;58.70;;;;;;4989694;28;20482;-80
2021/04/28 00:30:06;;;;;;;5.17;4.40;;;8.90;58.80;;;;;;4990913;28;20479;-81
2021/04/28 00:32:34;;;;;;;4.70;4.30;;;8.90;59.30;;;;;;4991065;28;20646;-77
2021/04/28 00:35:02;;;;;;;4.80;4.40;;;8.90;59.30;;;;;;4990983;28;20416;-78
2021/04/28 00:37:27;;;;;;;4.77;4.37;;;8.80;59.10;;;;;;4990631;28;20439;-80
2021/04/28 00:39:53;;;;;;;6.77;4.43;;;8.90;59.20;;;;;;4990779;28;20419;-79
2021/04/28 00:42:18;;;;;;;4.97;4.50;;;8.90;59.50;;;;;;4991036;28;20188;-79
2021/04/28 00:44:45;;;;;;;4.53;4.13;;;8.80;60.00;;;;;;4989065;28;20192;-79
2021/04/28 00:47:10;;;;;;;5.30;4.80;;;8.80;60.10;;;;;;4990413;28;20215;-79
2021/04/28 00:49:36;;;;;;;7.03;4.80;;;8.70;60.90;;;;;;4990720;28;20487;-78
2021/04/28 00:52:04;;;;;;;5.37;4.87;;;8.80;60.50;;;;;;4990749;28;20185;-79
2021/04/28 00:54:31;;;;;;;4.63;4.23;;;8.70;60.70;;;;;;4990697;28;20478;-80
2021/04/28 00:56:58;;;;;;;4.87;4.40;;;8.70;60.90;;;;;;4990470;28;20490;-80
2021/04/28 00:59:25;;;;;;;4.90;4.40;;;8.70;61.20;;;;;;4987737;28;20438;-78
2021/04/28 01:01:50;;;;;;;5.13;4.73;;;8.60;61.50;;;;;;4990595;28;20450;-79
2021/04/28 01:04:16;;;;;;;5.03;4.47;;;8.60;61.80;;;;;;4989513;28;20450;-80
2021/04/28 01:06:44;;;;;;;5.00;4.50;;;8.50;62.70;;;;;;4990176;28;20204;-79
2021/04/28 01:09:12;;;;;;;4.90;4.30;;;8.50;62.30;;;;;;4990377;28;20966;-80
2021/04/28 01:11:39;;;;;;;5.47;4.57;;;8.50;63.90;;;;;;4989928;28;20515;-79
2021/04/28 01:14:05;;;;;;;5.90;5.40;;;8.40;63.00;;;;;;4991059;28;20547;-79
2021/04/28 01:16:31;;;;;;;5.10;4.27;;;8.30;63.50;;;;;;4996322;28;20575;-79
2021/04/28 01:18:56;;;;;;;5.50;5.10;;;8.30;65.00;;;;;;4990757;28;20427;-79
2021/04/28 01:21:22;;;;;;;4.57;4.17;;;8.30;64.30;;;;;;4989940;28;20195;-78
2021/04/28 01:23:47;;;;;;;5.70;5.20;;;8.20;64.50;;;;;;4988600;28;20655;-79
2021/04/28 01:26:14;;;;;;;4.70;4.30;;;8.20;64.70;;;;;;4989623;28;20208;-78
2021/04/28 01:28:41;;;;;;;4.73;4.33;;;8.20;65.30;;;;;;4989908;28;20216;-79
2021/04/28 01:31:09;;;;;;;5.23;4.53;;;8.10;65.50;;;;;;4989921;28;20427;-79
2021/04/28 01:33:39;;;;;;;6.67;5.10;;;8.20;65.50;;;;;;4990258;28;20447;-78
2021/04/28 01:36:08;;;;;;;4.87;4.47;;;8.10;65.90;;;;;;4984616;28;20423;-80
2021/04/28 01:38:41;;;;;;;5.43;4.70;;;8.10;65.90;;;;;;4989865;28;20431;-80
2021/04/28 01:41:07;;;;;;;6.17;5.17;;;8.00;66.30;;;;;;4984460;28;20432;-78
2021/04/28 01:43:33;;;;;;;5.17;4.73;;;8.00;66.80;;;;;;4989617;28;20729;-78
2021/04/28 01:45:59;;;;;;;6.30;5.70;;;8.00;66.60;;;;;;4987978;28;20883;-79
2021/04/28 01:48:24;;;;;;;5.57;5.10;;;8.00;67.50;;;;;;4989761;28;20549;-77
2021/04/28 01:50:52;;;;;;;5.57;5.10;;;7.90;67.30;;;;;;4988349;28;20952;-80
2021/04/28 01:53:22;;;;;;;6.07;5.47;;;7.80;68.00;;;;;;4992381;28;20185;-80
2021/04/28 01:55:51;;;;;;;7.50;5.17;;;7.90;68.20;;;;;;4998669;28;20438;-80
2021/04/28 01:58:18;;;;;;;7.43;5.63;;;7.80;68.00;;;;;;4993177;28;20937;-79
2021/04/28 02:00:44;;;;;;;5.70;5.20;;;7.80;68.70;;;;;;4989909;28;20427;-80
2021/04/28 02:03:10;;;;;;;5.33;4.93;;;7.70;69.50;;;;;;4989605;28;20427;-80
2021/04/28 02:05:36;;;;;;;8.47;4.93;;;7.70;69.40;;;;;;4988760;28;20494;-78
2021/04/28 02:08:02;;;;;;;7.00;4.90;;;7.70;69.90;;;;;;4989131;28;21011;-79
2021/04/28 02:10:28;;;;;;;5.33;4.83;;;7.70;69.80;;;;;;4993296;28;20193;-79
2021/04/28 02:12:54;;;;;;;5.10;4.60;;;7.70;69.20;;;;;;4993229;28;21343;-79
2021/04/28 02:15:23;;;;;;;5.90;5.40;;;7.60;69.60;;;;;;4991831;28;20781;-80
2021/04/28 02:17:52;;;;;;;5.70;5.17;;;7.60;70.20;;;;;;4993286;28;20327;-80
2021/04/28 02:20:20;;;;;;;6.23;5.00;;;7.60;70.10;;;;;;4993968;28;20434;-78
2021/04/28 02:22:46;;;;;;;5.77;5.33;;;7.60;71.20;;;;;;4993140;28;20420;-78
2021/04/28 02:25:12;;;;;;;8.13;5.53;;;7.60;70.60;;;;;;4989635;28;20423;-79
2021/04/28 02:27:39;;;;;;;6.13;5.53;;;7.60;70.60;;;;;;4987615;28;20448;-79
2021/04/28 02:30:12;;;;;;;7.20;5.57;;;7.60;71.00;;;;;;4987778;28;20941;-78
2021/04/28 02:32:38;;;;;;;6.13;5.53;;;7.60;70.70;;;;;;4989209;28;20470;-79
2021/04/28 02:35:05;;;;;;;7.30;6.60;;;7.50;71.60;;;;;;4988667;28;20640;-79
2021/04/28 02:37:32;;;;;;;9.37;6.00;;;7.40;71.60;;;;;;4987547;28;20208;-78
2021/04/28 02:40:05;;;;;;;6.37;5.77;;;7.50;71.80;;;;;;4988643;28;20862;-77
2021/04/28 02:42:32;;;;;;;5.83;5.33;;;7.50;71.60;;;;;;4989410;28;20427;-79
2021/04/28 02:44:59;;;;;;;5.97;5.33;;;7.40;71.90;;;;;;4987245;28;20978;-78
2021/04/28 02:47:27;;;;;;;7.60;6.10;;;7.40;72.30;;;;;;4988582;28;20442;-79
2021/04/28 02:49:53;;;;;;;7.10;4.73;;;7.40;72.90;;;;;;4989345;28;20487;-80
2021/04/28 02:52:20;;;;;;;6.70;5.70;;;7.40;72.60;;;;;;4989383;28;20467;-78
2021/04/28 02:54:46;;;;;;;7.20;5.77;;;7.40;72.90;;;;;;4987502;28;20434;-78
2021/04/28 02:57:13;;;;;;;5.27;4.87;;;7.40;72.60;;;;;;4989361;28;20448;-80
2021/04/28 02:59:38;;;;;;;6.10;4.87;;;7.40;72.50;;;;;;4993199;28;20423;-79
2021/04/28 03:02:07;;;;;;;6.13;5.60;;;7.40;72.60;;;;;;4994692;28;20434;-79
2021/04/28 03:04:36;;;;;;;6.53;5.00;;;7.40;73.60;;;;;;4994894;28;20193;-79
2021/04/28 03:07:02;;;;;;;6.47;5.33;;;7.40;73.10;;;;;;4994362;28;20862;-79
2021/04/28 03:09:27;;;;;;;6.07;5.57;;;7.40;73.80;;;;;;4994974;28;20498;-78
2021/04/28 03:11:53;;;;;;;5.50;5.00;;;7.30;74.00;;;;;;4995252;28;20187;-79
2021/04/28 03:14:19;;;;;;;6.20;5.70;;;7.30;73.90;;;;;;4993758;28;20192;-78
2021/04/28 03:16:45;;;;;;;8.57;6.43;;;7.20;74.60;;;;;;4996898;28;20455;-78
2021/04/28 03:19:11;;;;;;;8.37;5.67;;;7.20;74.90;;;;;;4997547;28;20204;-78
2021/04/28 03:21:46;;;;;;;6.83;6.23;;;7.20;75.20;;;;;;4994606;28;20427;-78
2021/04/28 03:24:12;;;;;;;7.20;6.60;;;7.10;76.20;;;;;;4985464;28;20819;-79
2021/04/28 03:26:38;;;;;;;6.67;6.03;;;7.10;75.80;;;;;;4987787;28;20823;-79
2021/04/28 03:29:04;;;;;;;7.67;6.97;;;7.10;76.10;;;;;;4987648;28;20474;-79
2021/04/28 03:31:29;;;;;;;6.40;5.70;;;7.10;76.60;;;;;;4986553;28;20227;-80
2021/04/28 03:33:55;;;;;;;6.77;6.03;;;7.10;76.60;;;;;;4988266;28;20220;-80
2021/04/28 03:36:21;;;;;;;7.07;6.37;;;7.10;76.10;;;;;;4987766;28;20208;-79
2021/04/28 03:38:46;;;;;;;6.20;5.60;;;7.20;75.90;;;;;;4987661;28;20188;-79
2021/04/28 03:41:12;;;;;;;8.13;5.93;;;7.20;76.10;;;;;;4988077;28;20189;-78
2021/04/28 03:43:37;;;;;;;6.40;5.80;;;7.10;76.20;;;;;;4986234;28;20200;-78
2021/04/28 03:46:03;;;;;;;9.40;6.07;;;7.10;76.50;;;;;;4986947;28;20195;-79
2021/04/28 03:48:29;;;;;;;8.00;6.23;;;7.10;77.00;;;;;;4988666;28;20492;-81
2021/04/28 03:50:55;;;;;;;6.87;5.87;;;7.10;76.60;;;;;;4986256;28;20184;-79
2021/04/28 03:53:20;;;;;;;6.43;5.83;;;7.10;77.20;;;;;;4986453;28;20238;-79
2021/04/28 03:55:46;;;;;;;8.10;5.73;;;7.10;77.40;;;;;;4987276;28;20490;-78
2021/04/28 03:58:12;;;;;;;7.40;6.60;;;7.10;78.00;;;;;;4986186;28;20231;-78
2021/04/28 04:00:37;;;;;;;6.67;6.03;;;7.10;77.00;;;;;;4986335;28;20261;-79
2021/04/28 04:03:04;;;;;;;7.60;6.27;;;7.00;79.50;;;;;;4987666;28;20181;-78
2021/04/28 04:05:31;;;;;;;8.40;6.40;;;7.00;79.00;;;;;;4987176;28;20184;-79
2021/04/28 04:07:56;;;;;;;6.90;6.20;;;6.90;81.30;;;;;;4987626;28;20463;-79
2021/04/28 04:10:22;;;;;;;7.47;5.93;;;6.80;81.80;;;;;;4987682;28;20451;-79
2021/04/28 04:12:48;;;;;;;6.50;5.90;;;6.80;84.10;;;;;;4987316;28;20645;-79
2021/04/28 04:15:14;;;;;;;7.53;6.87;;;6.70;84.00;;;;;;4987117;28;20271;-79
2021/04/28 04:17:39;;;;;;;10.77;6.93;;;6.80;84.10;;;;;;4992052;28;20201;-78
2021/04/28 04:20:06;;;;;;;9.23;6.67;;;6.70;84.20;;;;;;4987448;28;20279;-79
2021/04/28 04:22:32;;;;;;;9.17;6.90;;;6.90;82.70;;;;;;4985855;28;20185;-79
2021/04/28 04:24:58;;;;;;;7.87;6.80;;;6.90;82.60;;;;;;4987137;28;20966;-79
2021/04/28 04:27:23;;;;;;;8.17;6.40;;;6.90;83.30;;;;;;4987424;28;20212;-78
2021/04/28 04:29:49;;;;;;;6.63;6.03;;;6.80;83.10;;;;;;4987730;28;20220;-78
2021/04/28 04:32:15;;;;;;;8.13;7.43;;;6.90;82.50;;;;;;4986276;28;20645;-78
2021/04/28 04:34:41;;;;;;;7.60;6.73;;;6.90;83.50;;;;;;4987986;28;20434;-78
2021/04/28 04:37:06;;;;;;;9.40;7.30;;;6.90;83.50;;;;;;4989288;28;20205;-79
2021/04/28 04:39:32;;;;;;;6.93;6.30;;;6.90;83.10;;;;;;4991083;28;20193;-79
2021/04/28 04:41:57;;;;;;;7.00;6.30;;;6.90;83.10;;;;;;4991400;28;20192;-79
2021/04/28 04:44:23;;;;;;;7.37;6.70;;;6.90;83.30;;;;;;4991011;28;20204;-80
2021/04/28 04:46:49;;;;;;;6.90;6.30;;;6.90;83.00;;;;;;4989073;28;20242;-79
2021/04/28 04:49:14;;;;;;;6.87;6.00;;;6.90;83.50;;;;;;4992224;28;20582;-79
2021/04/28 04:51:40;;;;;;;7.00;6.40;;;6.90;83.30;;;;;;4997675;28;20192;-79
2021/04/28 04:54:06;;;;;;;7.40;6.60;;;7.00;84.60;;;;;;4990088;28;20184;-79
2021/04/28 04:56:32;;;;;;;7.10;6.40;;;7.00;83.20;;;;;;4990822;28;20240;-79
2021/04/28 04:58:58;;;;;;;8.60;6.50;;;7.10;83.50;;;;;;4989211;28;20826;-79
2021/04/28 05:01:23;;;;;;;7.40;6.60;;;7.10;81.90;;;;;;4989122;28;20440;-80
2021/04/28 05:03:49;;;;;;;8.00;7.30;;;7.10;82.70;;;;;;4990823;28;20593;-80
2021/04/28 05:06:15;;;;;;;7.73;7.00;;;7.20;83.20;;;;;;4988590;28;20211;-80
2021/04/28 05:08:41;;;;;;;6.93;6.23;;;7.20;82.50;;;;;;4990420;28;20200;-80
2021/04/28 05:11:06;;;;;;;8.30;7.60;;;7.30;82.40;;;;;;4990588;28;20866;-80
2021/04/28 05:13:32;;;;;;;7.73;7.03;;;7.40;82.00;;;;;;4990797;28;20208;-80
2021/04/28 05:15:57;;;;;;;12.10;6.80;;;7.40;82.10;;;;;;4992501;28;20251;-80
2021/04/28 05:18:23;;;;;;;7.90;6.63;;;7.50;81.40;;;;;;4993741;28;20184;-80
2021/04/28 05:20:48;;;;;;;8.23;6.63;;;7.60;81.20;;;;;;4992127;28;20230;-81
2021/04/28 05:23:14;;;;;;;8.20;7.00;;;7.60;81.10;;;;;;4991468;28;20195;-80
2021/04/28 05:25:40;;;;;;;7.17;6.47;;;7.70;79.80;;;;;;4991622;28;20196;-80
2021/04/28 05:28:05;;;;;;;7.03;6.43;;;7.90;79.90;;;;;;4989453;28;20220;-80
2021/04/28 05:30:31;;;;;;;8.20;6.30;;;8.00;78.70;;;;;;4990256;28;20215;-80
2021/04/28 05:32:57;;;;;;;7.50;6.80;;;8.00;78.20;;;;;;4991781;28;20188;-79
2021/04/28 05:35:23;;;;;;;8.63;7.07;;;8.00;78.20;;;;;;4991239;28;20191;-79
2021/04/28 05:37:49;;;;;;;6.73;6.13;;;8.10;78.20;;;;;;4991772;28;20204;-79
2021/04/28 05:40:16;;;;;;;7.13;6.00;;;8.20;78.40;;;;;;4992109;28;20431;-79
2021/04/28 05:42:41;;;;;;;6.40;5.70;;;8.20;78.00;;;;;;4989908;28;20431;-79
2021/04/28 05:45:09;;;;;;;7.87;7.13;;;8.40;78.00;;;;;;4987683;28;20435;-79
2021/04/28 05:47:35;;;;;;;8.70;6.50;;;8.40;77.50;;;;;;4990362;28;20219;-78
2021/04/28 05:50:00;;;;;;;7.57;6.57;;;8.50;78.00;;;;;;4992821;28;20467;-80
2021/04/28 05:52:26;;;;;;;6.80;6.13;;;8.50;77.50;;;;;;4988646;28;20845;-80
2021/04/28 05:54:52;;;;;;;8.73;6.77;;;8.80;77.30;;;;;;4989517;28;20280;-78
2021/04/28 05:57:18;;;;;;;8.53;6.80;;;8.90;76.70;;;;;;4987450;28;20635;-80
2021/04/28 05:59:46;;;;;;;7.30;6.50;;;9.00;76.00;;;;;;4989408;28;20192;-78
2021/04/28 06:02:12;;;;;;;6.90;6.27;;;9.10;75.90;;;;;;4988120;28;20424;-78
2021/04/28 06:04:38;;;;;;;7.53;6.13;;;9.20;75.70;;;;;;4989374;28;20434;-78
2021/04/28 06:07:04;;;;;;;7.43;6.50;;;9.40;75.10;;;;;;4987726;28;20444;-79
2021/04/28 06:09:31;;;;;;;9.47;6.63;;;9.50;74.30;;;;;;4988049;28;20538;-79
2021/04/28 06:11:56;;;;;;;8.23;5.53;;;9.60;73.40;;;;;;4987568;28;20427;-79
2021/04/28 06:14:22;;;;;;;7.23;6.17;;;9.60;73.50;;;;;;4987809;28;20474;-79
2021/04/28 06:16:48;;;;;;;7.30;6.60;;;9.70;73.00;;;;;;4988899;28;20630;-79
2021/04/28 06:19:15;;;;;;;6.90;6.30;;;9.80;73.10;;;;;;4990397;28;20252;-79
2021/04/28 06:21:40;;;;;;;8.30;6.63;;;9.90;72.80;;;;;;4991379;28;20199;-80
2021/04/28 06:24:07;;;;;;;6.67;6.10;;;10.10;70.60;;;;;;4989523;28;20412;-80
2021/04/28 06:26:33;;;;;;;7.27;6.37;;;10.10;70.90;;;;;;4989033;28;20209;-79
2021/04/28 06:28:59;;;;;;;7.83;7.03;;;10.30;70.70;;;;;;4989543;28;20895;-79
2021/04/28 06:31:24;;;;;;;7.87;6.27;;;10.40;70.80;;;;;;4988130;28;20710;-78
2021/04/28 06:33:51;;;;;;;7.73;6.90;;;10.60;70.30;;;;;;4987507;28;20192;-80
2021/04/28 06:36:17;;;;;;;7.93;6.87;;;10.70;69.00;;;;;;4988393;28;20279;-80
2021/04/28 06:38:42;;;;;;;8.83;6.90;;;10.90;68.40;;;;;;4988613;28;20585;-80
2021/04/28 06:41:08;;;;;;;7.43;6.73;;;10.90;68.30;;;;;;4988409;28;20426;-78
2021/04/28 06:43:34;;;;;;;6.87;6.23;;;11.00;67.80;;;;;;4987608;28;20675;-80
2021/04/28 06:45:59;;;;;;;8.40;7.57;;;11.10;68.30;;;;;;4986926;28;20279;-80
2021/04/28 06:48:25;;;;;;;9.53;6.37;;;11.20;67.80;;;;;;4989393;28;20205;-81
2021/04/28 06:50:52;;;;;;;10.73;6.30;;;11.30;67.60;;;;;;4988405;28;20275;-80
2021/04/28 06:53:18;;;;;;;7.40;6.70;;;11.30;67.20;;;;;;4988690;28;20991;-79
2021/04/28 06:55:44;;;;;;;8.50;6.43;;;11.30;67.00;;;;;;4989064;28;20506;-79
2021/04/28 06:58:10;;;;;;;6.80;5.80;;;11.40;67.40;;;;;;4988209;28;20439;-80
2021/04/28 07:00:35;;;;;;;8.10;6.30;;;11.50;67.50;;;;;;4989393;28;20458;-80
2021/04/28 07:03:01;;;;;;;8.20;7.30;;;11.60;66.80;;;;;;4989357;28;20713;-78
2021/04/28 07:05:27;;;;;;;8.10;7.30;;;11.60;67.90;;;;;;4987893;28;20263;-79
2021/04/28 07:07:53;;;;;;;9.77;6.90;;;11.60;67.50;;;;;;4986889;28;20239;-79
2021/04/28 07:10:19;;;;;;;7.37;6.77;;;11.80;67.90;;;;;;4988531;28;20192;-80
2021/04/28 07:12:45;;;;;;;7.63;6.93;;;11.90;67.40;;;;;;4987082;28;20462;-81
2021/04/28 07:15:12;;;;;;;9.07;7.53;;;12.10;67.20;;;;;;4988539;28;20523;-79
2021/04/28 07:17:38;;;;;;;7.80;6.87;;;12.10;67.00;;;;;;4988798;28;20296;-79
2021/04/28 07:20:05;;;;;;;8.73;7.57;;;12.20;67.70;;;;;;4988027;28;20455;-80
2021/04/28 07:22:31;;;;;;;10.00;7.70;;;12.20;66.70;;;;;;4987808;28;20562;-79
2021/04/28 07:24:57;;;;;;;8.10;7.30;;;12.30;66.90;;;;;;4987611;28;20496;-79
2021/04/28 07:27:23;;;;;;;9.00;7.30;;;12.40;67.60;;;;;;4988846;28;20196;-80
2021/04/28 07:29:48;;;;;;;8.67;7.77;;;12.40;67.30;;;;;;4988759;28;20208;-79
2021/04/28 07:32:16;;;;;;;9.33;8.30;;;12.60;66.90;;;;;;4990842;28;20181;-79
2021/04/28 07:34:42;;;;;;;7.20;6.60;;;12.70;66.60;;;;;;4989284;28;20263;-80
2021/04/28 07:37:08;;;;;;;8.40;7.63;;;12.90;66.70;;;;;;4986643;28;20586;-79
2021/04/28 07:39:34;;;;;;;9.50;8.30;;;12.90;67.10;;;;;;4987940;28;20279;-80
2021/04/28 07:42:00;;;;;;;8.20;7.50;;;13.10;67.30;;;;;;4988055;28;20274;-80
2021/04/28 07:44:28;;;;;;;7.53;6.83;;;13.20;67.70;;;;;;4988154;28;21097;-81
2021/04/28 07:46:54;;;;;;;8.30;7.50;;;13.40;66.60;;;;;;4986927;28;20204;-78
2021/04/28 07:49:19;;;;;;;7.40;6.70;;;13.40;66.00;;;;;;4987028;28;20474;-80
2021/04/28 07:51:46;;;;;;;8.30;7.50;;;13.60;66.20;;;;;;4989801;28;20550;-81
2021/04/28 07:54:11;;;;;;;11.37;8.50;;;13.70;65.90;;;;;;4988475;28;20191;-80
2021/04/28 07:56:37;;;;;;;8.67;7.77;;;13.70;66.00;;;;;;4986789;28;20821;-79
2021/04/28 07:59:03;;;;;;;8.20;7.50;;;13.90;65.70;;;;;;4987215;28;20220;-77
2021/04/28 08:01:28;;;;;;;10.53;8.50;;;14.00;65.10;;;;;;4988238;28;20501;-80
2021/04/28 08:03:54;;;;;;;8.77;7.87;;;14.00;65.60;;;;;;4989053;28;20434;-77
2021/04/28 08:06:19;;;;;;;9.40;7.40;;;14.10;65.70;;;;;;4990920;28;20307;-78
2021/04/28 08:08:45;;;;;;;8.90;6.70;;;14.30;65.00;;;;;;4987620;28;20205;-81
2021/04/28 08:11:11;;;;;;;8.93;7.70;;;14.40;65.00;;;;;;4984111;28;20191;-78
2021/04/28 08:13:36;;;;;;;7.53;6.83;;;14.60;65.40;;;;;;4990417;28;20192;-80
2021/04/28 08:16:02;;;;;;;8.57;7.77;;;14.70;64.60;;;;;;4991284;28;20181;-79
2021/04/28 08:18:28;;;;;;;9.67;7.60;;;14.70;63.70;;;;;;4990204;28;20254;-82
2021/04/28 08:20:54;;;;;;;9.00;6.93;;;14.70;63.70;;;;;;4991475;28;20196;-81
2021/04/28 08:23:21;;;;;;;8.63;7.80;;;14.70;63.60;;;;;;4991613;28;20193;-80
2021/04/28 08:25:46;;;;;;;10.13;8.23;;;14.80;63.60;;;;;;4989652;28;20431;-77
2021/04/28 08:28:12;;;;;;;8.20;7.40;;;14.90;62.90;;;;;;4991524;28;20471;-78
2021/04/28 08:30:39;;;;;;;8.83;7.40;;;15.00;63.20;;;;;;4990176;28;20195;-80
2021/04/28 08:33:05;;;;;;;9.00;7.60;;;15.10;63.20;;;;;;4991089;28;20204;-80
2021/04/28 08:35:31;;;;;;;8.43;7.63;;;15.20;62.20;;;;;;4990638;28;20454;-80
2021/04/28 08:37:56;;;;;;;10.03;9.07;;;15.30;62.30;;;;;;4990967;28;20464;-79
2021/04/28 08:40:22;;;;;;;11.97;9.13;;;15.40;61.30;;;;;;4990977;28;20192;-79
2021/04/28 08:42:48;;;;;;;10.73;8.10;;;15.50;60.80;;;;;;4990949;28;20215;-80
2021/04/28 08:45:14;;;;;;;8.90;8.07;;;15.40;60.90;;;;;;4989706;28;20208;-79
2021/04/28 08:47:42;;;;;;;10.70;9.70;;;15.50;61.40;;;;;;4989558;28;20208;-79
2021/04/28 08:50:08;;;;;;;9.97;8.43;;;15.60;61.20;;;;;;4991383;28;20526;-79
2021/04/28 08:52:35;;;;;;;9.20;8.20;;;15.70;60.60;;;;;;4990236;28;20870;-80
2021/04/28 08:55:01;;;;;;;13.90;8.53;;;15.70;60.80;;;;;;4990502;28;20431;-79
2021/04/28 08:57:27;;;;;;;10.83;8.30;;;15.80;60.90;;;;;;4991308;28;20448;-80
2021/04/28 08:59:54;;;;;;;9.43;8.43;;;15.90;61.00;;;;;;4990691;28;20480;-78
2021/04/28 09:02:23;;;;;;;9.17;8.27;;;16.00;61.50;;;;;;4992583;28;20432;-79
2021/04/28 09:05:11;;;;;;;8.90;8.07;;;16.00;60.10;;;;;;4991089;28;20570;-79
2021/04/28 09:07:44;;;;;;;10.17;9.17;;;16.20;60.50;;;;;;4991492;28;20454;-80
2021/04/28 09:10:19;;;;;;;9.37;8.27;;;16.30;60.10;;;;;;4986843;28;20570;-77
2021/04/28 09:12:55;;;;;;;10.17;8.93;;;16.10;60.00;;;;;;4990993;28;20427;-81
2021/04/28 09:15:31;;;;;;;10.50;9.60;;;16.30;60.50;;;;;;4989971;28;20423;-79
2021/04/28 09:17:57;;;;;;;10.03;9.03;;;16.30;59.80;;;;;;4988709;28;20455;-80
2021/04/28 09:20:47;;;;;;;10.00;9.10;;;16.30;59.80;;;;;;4989786;28;20419;-79
2021/04/28 09:23:18;;;;;;;9.70;8.30;;;16.30;60.00;;;;;;4990549;28;21004;-81
2021/04/28 09:25:45;;;;;;;9.47;8.63;;;16.30;60.10;;;;;;4990169;28;20423;-78
2021/04/28 09:28:32;;;;;;;10.03;9.00;;;16.20;59.80;;;;;;4991070;28;20558;-79
2021/04/28 09:31:06;;;;;;;8.97;8.10;;;16.00;60.30;;;;;;4990809;28;20442;-78
2021/04/28 09:33:41;;;;;;;10.70;9.57;;;16.00;60.30;;;;;;4990584;28;20974;-79
2021/04/28 09:36:08;;;;;;;11.70;9.40;;;16.10;60.70;;;;;;4985305;28;20514;-78
2021/04/28 09:38:57;;;;;;;10.50;9.43;;;16.20;59.80;;;;;;4995833;28;20481;-78
2021/04/28 09:41:35;;;;;;;11.60;10.60;;;16.30;60.20;;;;;;4988335;28;20447;-78
2021/04/28 09:44:02;;;;;;;11.10;9.90;;;16.40;59.40;;;;;;4990283;28;20420;-78
2021/04/28 09:46:28;;;;;;;11.00;9.70;;;16.50;60.10;;;;;;4990436;28;20547;-77
2021/04/28 09:49:02;;;;;;;10.00;9.10;;;16.60;59.90;;;;;;4993198;28;21098;-78
2021/04/28 09:51:33;;;;;;;10.43;8.70;;;16.70;59.40;;;;;;4988457;28;20754;-78
2021/04/28 09:54:14;;;;;;;10.30;9.30;;;16.80;59.60;;;;;;4989353;28;20782;-77
2021/04/28 09:56:42;;;;;;;9.97;8.97;;;16.90;59.30;;;;;;4988914;28;20462;-79
2021/04/28 09:59:08;;;;;;;11.60;10.50;;;16.90;59.00;;;;;;4989614;28;20908;-76
2021/04/28 10:01:36;;;;;;;11.73;9.33;;;17.10;59.40;;;;;;4990499;28;20431;-80
2021/04/28 10:04:04;;;;;;;11.00;9.23;;;17.10;58.20;;;;;;4990780;28;20424;-79
2021/04/28 10:06:47;;;;;;;10.70;9.60;;;17.10;58.70;;;;;;4990239;28;20451;-79
2021/04/28 10:09:36;;;;;;;11.40;9.43;;;17.00;58.80;;;;;;4988715;28;20466;-77
2021/04/28 10:12:07;;;;;;;10.13;9.13;;;16.90;59.00;;;;;;4991120;28;20461;-79
2021/04/28 10:14:35;;;;;;;10.00;9.00;;;17.00;58.70;;;;;;4990946;28;20416;-79
2021/04/28 10:17:03;;;;;;;21.70;10.80;;;17.10;58.10;;;;;;4990294;28;20519;-79
2021/04/28 10:19:31;;;;;;;15.30;10.67;;;17.00;58.10;;;;;;4990889;28;20432;-78
2021/04/28 10:22:12;;;;;;;12.20;10.00;;;17.10;58.40;;;;;;4989968;28;20430;-78
2021/04/28 10:24:42;;;;;;;12.93;8.60;;;17.20;58.30;;;;;;4989642;28;20501;-79
2021/04/28 10:27:10;;;;;;;13.40;10.20;;;17.40;58.40;;;;;;4990094;28;20447;-78
2021/04/28 10:29:38;;;;;;;11.33;10.13;;;17.60;58.10;;;;;;4989620;28;20582;-79
2021/04/28 10:32:07;;;;;;;13.40;9.50;;;17.70;58.20;;;;;;4988450;28;20833;-79
2021/04/28 10:34:37;;;;;;;11.83;10.63;;;17.70;57.60;;;;;;4991282;28;20420;-79
2021/04/28 10:37:04;;;;;;;14.17;11.00;;;17.50;57.10;;;;;;4988098;28;20447;-77
2021/04/28 10:39:31;;;;;;;11.90;10.70;;;17.60;57.00;;;;;;4997836;28;20416;-78
2021/04/28 10:41:57;;;;;;;12.70;10.30;;;17.60;57.40;;;;;;4996504;28;20419;-77
2021/04/28 10:44:41;;;;;;;11.17;9.50;;;17.70;57.60;;;;;;4997821;28;20487;-77
2021/04/28 10:47:27;;;;;;;12.07;10.87;;;18.00;57.40;;;;;;4993078;28;20466;-78
2021/04/28 10:50:05;;;;;;;12.37;11.07;;;18.30;57.00;;;;;;4993599;28;20510;-77
2021/04/28 10:52:33;;;;;;;12.60;11.37;;;18.20;57.10;;;;;;5001473;28;20446;-81
2021/04/28 10:54:59;;;;;;;12.17;10.97;;;18.10;55.80;;;;;;4997833;28;20416;-78
2021/04/28 10:57:34;;;;;;;11.87;10.47;;;18.10;56.70;;;;;;4999573;28;20971;-79
2021/04/28 11:00:01;;;;;;;11.43;10.20;;;18.00;57.20;;;;;;4999584;28;20710;-79
2021/04/28 11:02:30;;;;;;;12.60;10.20;;;18.10;56.70;;;;;;4996985;28;20439;-80
2021/04/28 11:05:05;;;;;;;11.37;10.17;;;18.00;56.60;;;;;;4993029;28;20427;-76
2021/04/28 11:07:43;;;;;;;12.07;9.97;;;17.90;57.60;;;;;;4995311;28;20455;-79
2021/04/28 11:10:28;;;;;;;12.73;11.17;;;18.00;57.80;;;;;;4994005;28;20481;-80
2021/04/28 11:13:16;;;;;;;11.80;10.47;;;18.20;57.20;;;;;;4988540;28;20787;-79
2021/04/28 11:15:52;;;;;;;10.73;9.63;;;18.30;57.40;;;;;;4990284;28;20440;-79
2021/04/28 11:18:34;;;;;;;11.20;10.00;;;18.30;57.40;;;;;;4994125;28;20439;-79
2021/04/28 11:21:24;;;;;;;11.03;9.83;;;18.30;57.40;;;;;;4992470;28;20509;-80
2021/04/28 11:24:12;;;;;;;12.10;10.90;;;18.50;57.60;;;;;;4991917;28;20502;-79
2021/04/28 11:26:40;;;;;;;11.40;10.13;;;18.70;57.50;;;;;;4986513;28;20443;-79
2021/04/28 11:29:07;;;;;;;11.00;9.83;;;19.00;57.30;;;;;;4989739;28;20489;-79
2021/04/28 11:31:50;;;;;;;13.67;11.30;;;19.10;56.00;;;;;;4990289;28;20517;-79
2021/04/28 11:34:36;;;;;;;14.60;9.83;;;19.10;55.50;;;;;;4984482;28;20408;-80
2021/04/28 11:37:09;;;;;;;14.50;11.20;;;19.30;55.40;;;;;;4989512;28;20497;-79
2021/04/28 11:39:40;;;;;;;12.90;11.60;;;19.40;55.40;;;;;;4988843;28;20446;-80
2021/04/28 11:42:11;;;;;;;12.33;11.13;;;19.50;55.70;;;;;;4982249;28;20451;-79
2021/04/28 11:44:49;;;;;;;13.97;10.97;;;19.70;54.30;;;;;;4997228;28;20443;-79
2021/04/28 11:47:27;;;;;;;14.10;12.60;;;19.70;54.70;;;;;;4996513;28;20811;-79
2021/04/28 11:49:54;;;;;;;15.40;11.57;;;19.80;54.50;;;;;;4991648;28;21155;-78
2021/04/28 11:52:21;;;;;;;13.33;11.90;;;20.00;54.70;;;;;;4992782;28;20916;-77
2021/04/28 11:54:54;;;;;;;13.73;12.07;;;20.00;53.10;;;;;;4992203;28;20469;-79
2021/04/28 11:57:37;;;;;;;14.57;13.07;;;20.20;52.80;;;;;;4991807;28;20443;-80
2021/04/28 12:00:11;;;;;;;12.70;11.50;;;20.60;52.00;;;;;;4983610;28;20431;-78
2021/04/28 12:02:38;;;;;;;13.30;10.60;;;21.30;50.70;;;;;;4993020;28;20536;-77
2021/04/28 12:05:05;;;;;;;12.93;11.63;;;22.00;50.90;;;;;;4986133;28;20458;-78
2021/04/28 12:07:32;;;;;;;13.40;12.00;;;22.80;50.60;;;;;;4998310;28;20443;-78
2021/04/28 12:09:58;;;;;;;13.70;11.07;;;23.90;49.30;;;;;;5001694;28;21275;-81
2021/04/28 12:12:29;;;;;;;10.53;9.30;;;23.80;46.60;;;;;;4999294;28;20427;-82
2021/04/28 12:15:03;;;;;;;10.40;9.50;;;23.20;42.60;;;;;;4997066;28;20260;-75
2021/04/28 12:17:30;;;;;;;10.97;9.60;;;22.60;43.60;;;;;;4989172;28;20868;-76
2021/04/28 12:19:55;;;;;;;11.00;9.90;;;22.60;43.30;;;;;;4989136;28;20848;-76
2021/04/28 12:22:26;;;;;;;9.10;8.30;;;22.80;43.80;;;;;;4993636;28;20450;-75
2021/04/28 12:24:55;;;;;;;9.13;8.30;;;22.90;41.10;;;;;;4998033;28;20212;-79
2021/04/28 12:27:31;;;;;;;7.40;6.80;;;23.20;41.00;;;;;;5003772;28;20451;-78
2021/04/28 12:30:06;;;;;;;6.83;6.13;;;23.40;38.40;;;;;;4976905;28;20478;-77
2021/04/28 12:32:34;;;;;;;7.20;6.53;;;23.80;35.50;;;;;;4991762;28;20422;-77
2021/04/28 12:35:19;;;;;;;8.57;6.53;;;24.10;35.60;;;;;;4990845;28;20434;-75
2021/04/28 12:38:12;;;;;;;7.80;7.10;;;24.40;35.50;;;;;;4991323;28;20806;-77
2021/04/28 12:40:46;;;;;;;6.43;5.83;;;24.60;35.30;;;;;;4999043;28;20539;-77
2021/04/28 12:43:18;;;;;;;6.90;6.20;;;24.80;36.50;;;;;;4990475;28;20446;-77
2021/04/28 12:45:45;;;;;;;8.33;7.63;;;25.30;36.20;;;;;;4990355;28;20439;-77
2021/04/28 12:48:12;;;;;;;9.60;8.63;;;26.00;36.60;;;;;;4994416;28;20514;-77
2021/04/28 12:50:39;;;;;;;11.93;8.10;;;25.70;36.90;;;;;;4997053;28;20438;-78
2021/04/28 12:53:17;;;;;;;9.97;8.97;;;25.60;38.20;;;;;;4991104;28;20427;-77